Time;durP1;ratioP1;P1;durP2;ratioP2;P2;SDS_P1;SDS_P2;PMS_P1;PMS_P2;Temp;Humidity;BMP_temperature;BMP_pressure;BME280_temperature;BME280_humidity;BME280_pressure;Samples;Min_cycle;Max_cycle;Signal;HPM_P1;HPM_P2
2022/02/13 00:00:16;;;;;;;4.90;2.33;;;0.40;99.90;;;;;;5068429;28;20068;-53
2022/02/13 00:02:43;;;;;;;2.83;1.77;;;0.50;99.90;;;;;;5069200;28;20036;-51
2022/02/13 00:05:10;;;;;;;4.50;2.20;;;0.60;99.90;;;;;;5070222;28;20060;-52
2022/02/13 00:07:36;;;;;;;6.03;2.25;;;0.60;99.90;;;;;;5069898;28;20078;-52
2022/02/13 00:10:05;;;;;;;3.15;2.25;;;0.60;99.90;;;;;;5069601;28;20085;-55
2022/02/13 00:12:31;;;;;;;4.72;2.33;;;0.60;99.90;;;;;;5069807;28;20073;-51
2022/02/13 00:14:56;;;;;;;4.40;2.10;;;0.70;99.90;;;;;;5069917;28;20064;-53
2022/02/13 00:17:23;;;;;;;6.18;2.15;;;0.80;99.90;;;;;;5070857;28;20043;-54
2022/02/13 00:19:49;;;;;;;4.03;2.28;;;0.70;99.90;;;;;;5069245;28;20116;-52
2022/02/13 00:22:17;;;;;;;2.40;2.00;;;0.80;99.90;;;;;;5069313;28;20035;-55
2022/02/13 00:24:43;;;;;;;3.28;2.25;;;0.80;99.90;;;;;;5069671;28;20554;-55
2022/02/13 00:27:09;;;;;;;3.15;2.05;;;0.90;99.90;;;;;;5069471;28;20073;-56
2022/02/13 00:29:35;;;;;;;5.85;2.45;;;0.90;99.90;;;;;;5068482;28;20035;-55
2022/02/13 00:32:01;;;;;;;2.20;2.00;;;0.90;99.90;;;;;;5069205;28;20028;-52
2022/02/13 00:34:27;;;;;;;3.72;2.08;;;0.90;99.90;;;;;;5069322;28;20388;-52
2022/02/13 00:36:53;;;;;;;7.35;2.78;;;1.00;99.90;;;;;;5069245;28;20078;-55
2022/02/13 00:39:18;;;;;;;2.78;2.15;;;0.90;99.90;;;;;;5069190;28;20025;-52
2022/02/13 00:41:44;;;;;;;5.45;2.42;;;1.00;99.90;;;;;;5069647;28;20024;-53
2022/02/13 00:44:10;;;;;;;3.78;1.90;;;1.00;99.90;;;;;;5069330;28;20016;-53
2022/02/13 00:46:36;;;;;;;4.07;2.30;;;1.00;99.90;;;;;;5069295;28;20031;-51
2022/02/13 00:49:02;;;;;;;3.88;2.15;;;1.00;99.90;;;;;;5069353;28;20411;-50
2022/02/13 00:51:28;;;;;;;6.78;2.00;;;1.00;99.90;;;;;;5068926;28;20176;-52
2022/02/13 00:53:53;;;;;;;6.55;2.45;;;1.00;99.90;;;;;;5067241;28;20031;-53
2022/02/13 00:56:20;;;;;;;5.88;2.80;;;1.00;99.90;;;;;;5069005;28;20520;-50
2022/02/13 00:58:46;;;;;;;4.38;2.72;;;0.90;99.90;;;;;;5069055;28;20074;-54
2022/02/13 01:01:12;;;;;;;3.35;2.47;;;0.90;99.90;;;;;;5069075;28;20052;-54
2022/02/13 01:03:38;;;;;;;3.40;2.22;;;1.00;99.90;;;;;;5069008;28;20060;-53
2022/02/13 01:06:04;;;;;;;3.38;2.58;;;1.00;99.90;;;;;;5069074;28;20059;-52
2022/02/13 01:08:30;;;;;;;3.80;1.92;;;1.00;99.90;;;;;;5068822;28;20028;-52
2022/02/13 01:10:56;;;;;;;4.80;2.40;;;1.00;99.90;;;;;;5068646;28;20036;-54
2022/02/13 01:13:22;;;;;;;3.17;2.25;;;1.00;99.90;;;;;;5066211;28;20150;-51
2022/02/13 01:15:47;;;;;;;4.85;2.53;;;1.00;99.90;;;;;;5068457;28;20508;-52
2022/02/13 01:18:13;;;;;;;4.93;2.30;;;0.90;99.90;;;;;;5068130;28;20125;-52
2022/02/13 01:20:39;;;;;;;3.92;2.28;;;1.00;99.90;;;;;;5065711;28;20029;-52
2022/02/13 01:23:05;;;;;;;3.17;2.35;;;0.90;99.90;;;;;;5068244;28;20488;-55
2022/02/13 01:25:31;;;;;;;5.32;2.47;;;0.90;99.90;;;;;;5069253;28;20035;-54
2022/02/13 01:27:56;;;;;;;4.05;2.22;;;0.90;99.90;;;;;;5068765;28;20111;-56
2022/02/13 01:30:22;;;;;;;4.35;2.42;;;0.80;99.90;;;;;;5068203;28;20756;-54
2022/02/13 01:32:48;;;;;;;3.10;2.47;;;0.80;99.90;;;;;;5067391;28;20086;-55
2022/02/13 01:35:14;;;;;;;3.63;2.58;;;0.80;99.90;;;;;;5068931;28;20115;-52
2022/02/13 01:37:40;;;;;;;3.95;2.50;;;0.80;99.90;;;;;;5067207;28;20020;-56
2022/02/13 01:40:06;;;;;;;4.63;2.38;;;0.80;99.90;;;;;;5067091;28;20115;-52
2022/02/13 01:42:32;;;;;;;3.80;2.33;;;0.80;99.90;;;;;;5067900;28;20033;-52
2022/02/13 01:44:58;;;;;;;5.70;2.90;;;0.80;99.90;;;;;;5068698;28;20758;-52
2022/02/13 01:47:24;;;;;;;4.25;2.65;;;0.80;99.90;;;;;;5068420;28;20104;-54
2022/02/13 01:49:50;;;;;;;5.50;2.90;;;0.90;99.90;;;;;;5068495;28;20054;-51
2022/02/13 01:52:16;;;;;;;7.28;2.55;;;0.80;99.90;;;;;;5067937;28;20111;-52
2022/02/13 01:54:43;;;;;;;5.32;2.80;;;0.80;99.90;;;;;;5068402;28;20099;-51
2022/02/13 01:57:12;;;;;;;4.03;2.70;;;0.70;99.90;;;;;;5068183;28;20480;-54
2022/02/13 01:59:37;;;;;;;4.75;2.85;;;0.80;99.90;;;;;;5064351;28;20024;-55
2022/02/13 02:02:04;;;;;;;3.10;2.30;;;0.70;99.90;;;;;;5065960;28;20085;-51
2022/02/13 02:04:30;;;;;;;6.13;2.95;;;0.70;99.90;;;;;;5062723;28;20163;-53
2022/02/13 02:06:55;;;;;;;3.28;2.13;;;0.60;99.90;;;;;;5064600;28;20482;-51
2022/02/13 02:09:24;;;;;;;6.22;3.15;;;0.60;99.90;;;;;;5068521;28;20395;-51
2022/02/13 02:11:49;;;;;;;3.60;2.40;;;0.60;99.90;;;;;;5068350;28;20025;-54
2022/02/13 02:14:15;;;;;;;5.32;2.80;;;0.60;99.90;;;;;;5068571;28;20025;-52
2022/02/13 02:16:42;;;;;;;6.22;2.83;;;0.60;99.90;;;;;;5068232;28;20551;-54
2022/02/13 02:19:09;;;;;;;5.88;2.63;;;0.60;99.90;;;;;;5068412;28;20020;-52
2022/02/13 02:21:35;;;;;;;6.38;2.75;;;0.60;99.90;;;;;;5067473;28;20071;-53
2022/02/13 02:24:00;;;;;;;3.92;2.75;;;0.60;99.90;;;;;;5069642;28;20506;-54
2022/02/13 02:26:26;;;;;;;6.30;2.58;;;0.60;99.90;;;;;;5072009;28;20035;-54
2022/02/13 02:28:51;;;;;;;3.20;2.60;;;0.50;99.90;;;;;;5072356;28;20399;-51
2022/02/13 02:31:17;;;;;;;7.10;3.10;;;0.50;99.90;;;;;;5071825;28;20103;-52
2022/02/13 02:33:43;;;;;;;5.03;2.70;;;0.50;99.90;;;;;;5071000;28;20035;-54
2022/02/13 02:36:19;;;;;;;7.28;2.88;;;0.50;99.90;;;;;;5072127;28;20029;-52
2022/02/13 02:38:46;;;;;;;5.22;2.63;;;0.50;99.90;;;;;;5070804;28;20075;-53
2022/02/13 02:41:12;;;;;;;5.72;2.50;;;0.50;99.90;;;;;;5071701;28;20036;-53
2022/02/13 02:43:38;;;;;;;4.55;2.75;;;0.40;99.90;;;;;;5071699;28;20109;-53
2022/02/13 02:46:03;;;;;;;6.00;3.20;;;0.40;99.90;;;;;;5071907;28;20086;-53
2022/02/13 02:48:29;;;;;;;3.70;2.83;;;0.40;99.90;;;;;;5071692;28;20028;-50
2022/02/13 02:50:55;;;;;;;5.68;3.70;;;0.40;99.90;;;;;;5071043;28;20442;-53
2022/02/13 02:53:20;;;;;;;7.18;2.97;;;0.40;99.90;;;;;;5071243;28;20123;-53
2022/02/13 02:55:46;;;;;;;4.13;3.03;;;0.40;99.90;;;;;;5071535;28;20107;-55
2022/02/13 02:58:12;;;;;;;5.80;2.97;;;0.40;99.90;;;;;;5071251;28;20082;-52
2022/02/13 03:00:38;;;;;;;8.80;3.28;;;0.40;99.90;;;;;;5071479;28;20060;-51
2022/02/13 03:03:03;;;;;;;5.15;3.15;;;0.40;99.90;;;;;;5071394;28;20110;-54
2022/02/13 03:05:29;;;;;;;4.32;3.00;;;0.40;99.90;;;;;;5071774;28;20457;-51
2022/02/13 03:07:55;;;;;;;5.28;2.70;;;0.30;99.90;;;;;;5070004;28;20044;-52
2022/02/13 03:10:20;;;;;;;5.78;3.42;;;0.30;99.90;;;;;;5071603;28;20028;-51
2022/02/13 03:12:46;;;;;;;7.25;3.13;;;0.30;99.90;;;;;;5069718;28;20030;-51
2022/02/13 03:15:12;;;;;;;5.38;2.97;;;0.30;99.90;;;;;;5071457;28;20388;-52
2022/02/13 03:17:37;;;;;;;3.70;3.10;;;0.30;99.90;;;;;;5086386;22;20065;-54
2022/02/13 03:20:03;;;;;;;5.85;3.15;;;0.30;99.90;;;;;;5033381;28;20071;-50
2022/02/13 03:22:29;;;;;;;7.10;3.38;;;0.30;99.90;;;;;;5032344;28;20048;-51
2022/02/13 03:24:58;;;;;;;4.60;2.70;;;0.30;99.90;;;;;;5051155;28;20060;-54
2022/02/13 03:27:25;;;;;;;6.35;3.47;;;0.30;99.90;;;;;;5056919;28;20024;-52
2022/02/13 03:29:53;;;;;;;7.95;3.70;;;0.30;99.90;;;;;;5064168;28;20121;-53
2022/02/13 03:32:19;;;;;;;3.85;2.95;;;0.30;99.90;;;;;;5052673;28;20086;-53
2022/02/13 03:34:45;;;;;;;4.90;2.92;;;0.40;99.90;;;;;;5071183;28;20032;-56
2022/02/13 03:37:10;;;;;;;5.43;3.38;;;0.30;99.90;;;;;;5070646;28;20487;-53
2022/02/13 03:39:38;;;;;;;7.60;3.35;;;0.40;99.90;;;;;;5070685;28;20032;-52
2022/02/13 03:42:05;;;;;;;5.47;3.25;;;0.40;99.90;;;;;;5070882;28;20103;-54
2022/02/13 03:44:30;;;;;;;8.25;3.53;;;0.40;99.90;;;;;;5036628;28;20157;-53
2022/02/13 03:46:56;;;;;;;4.78;3.15;;;0.40;99.90;;;;;;5070956;28;20120;-50
2022/02/13 03:49:22;;;;;;;5.82;3.22;;;0.40;99.90;;;;;;5071016;28;20032;-52
2022/02/13 03:51:49;;;;;;;8.63;3.42;;;0.50;99.90;;;;;;5069397;28;20024;-53
2022/02/13 03:54:15;;;;;;;7.97;3.67;;;0.50;99.90;;;;;;5054532;28;20703;-54
2022/02/13 03:56:40;;;;;;;8.20;3.80;;;0.50;99.90;;;;;;5051111;28;20036;-53
2022/02/13 03:59:06;;;;;;;5.53;3.28;;;0.50;99.90;;;;;;5050203;28;20025;-52
2022/02/13 04:01:32;;;;;;;5.50;2.95;;;0.50;99.90;;;;;;5050631;28;20036;-53
2022/02/13 04:03:57;;;;;;;4.65;2.95;;;0.50;99.90;;;;;;5065240;28;20518;-55
2022/02/13 04:06:23;;;;;;;4.90;3.05;;;0.50;99.90;;;;;;5069905;28;20508;-52
2022/02/13 04:08:48;;;;;;;7.03;2.75;;;0.50;99.90;;;;;;5070548;28;20042;-54
2022/02/13 04:11:14;;;;;;;5.43;3.22;;;0.50;99.90;;;;;;5051860;28;20060;-55
2022/02/13 04:13:41;;;;;;;5.47;3.05;;;0.60;99.90;;;;;;5065804;28;20117;-56
2022/02/13 04:16:07;;;;;;;6.18;3.72;;;0.60;99.90;;;;;;5069946;28;20028;-55
2022/02/13 04:18:32;;;;;;;6.85;3.33;;;0.50;99.90;;;;;;5069990;28;20047;-54
2022/02/13 04:20:58;;;;;;;7.75;3.60;;;0.50;99.90;;;;;;5052148;28;20017;-55
2022/02/13 04:23:23;;;;;;;9.05;3.25;;;0.50;99.90;;;;;;5042293;28;20370;-52
2022/02/13 04:25:49;;;;;;;5.80;3.28;;;0.50;99.90;;;;;;5050394;28;20523;-56
2022/02/13 04:28:14;;;;;;;6.47;3.38;;;0.50;99.90;;;;;;5065751;28;20071;-53
2022/02/13 04:30:40;;;;;;;5.10;3.40;;;0.40;99.90;;;;;;5069754;28;20029;-55
2022/02/13 04:33:06;;;;;;;5.82;2.70;;;0.40;99.90;;;;;;5062701;28;20036;-52
2022/02/13 04:35:33;;;;;;;7.72;3.80;;;0.40;99.90;;;;;;5049361;28;20082;-54
2022/02/13 04:37:59;;;;;;;5.22;3.30;;;0.40;99.90;;;;;;5059995;28;20021;-52
2022/02/13 04:40:25;;;;;;;6.90;3.47;;;0.40;99.90;;;;;;5051598;28;20405;-51
2022/02/13 04:42:50;;;;;;;9.45;3.80;;;0.40;99.90;;;;;;5064738;28;20029;-55
2022/02/13 04:45:16;;;;;;;6.32;3.10;;;0.40;99.90;;;;;;5049790;28;20500;-54
2022/02/13 04:47:42;;;;;;;5.53;3.15;;;0.40;99.90;;;;;;5049321;28;20057;-55
2022/02/13 04:50:09;;;;;;;6.70;3.63;;;0.40;99.90;;;;;;5049372;28;20457;-51
2022/02/13 04:52:35;;;;;;;10.38;3.70;;;0.30;99.90;;;;;;5051391;28;20104;-55
2022/02/13 04:55:01;;;;;;;4.60;3.38;;;0.40;99.90;;;;;;5069644;28;20031;-57
2022/02/13 04:57:27;;;;;;;9.40;3.85;;;0.40;99.90;;;;;;5057558;28;20496;-53
2022/02/13 04:59:53;;;;;;;5.82;3.22;;;0.40;99.90;;;;;;5049711;28;20091;-55
2022/02/13 05:02:19;;;;;;;7.30;3.33;;;0.40;99.90;;;;;;5031453;28;20064;-56
2022/02/13 05:04:45;;;;;;;3.72;3.33;;;0.40;99.90;;;;;;5069238;28;20063;-55
2022/02/13 05:07:11;;;;;;;6.55;3.53;;;0.40;99.90;;;;;;5057481;28;20378;-55
2022/02/13 05:09:37;;;;;;;5.63;3.28;;;0.30;99.90;;;;;;5064892;28;20036;-50
2022/02/13 05:12:03;;;;;;;6.40;3.72;;;0.30;99.90;;;;;;5049401;28;20493;-54
2022/02/13 05:14:29;;;;;;;3.88;3.33;;;0.30;99.90;;;;;;5051647;28;20028;-50
2022/02/13 05:16:55;;;;;;;4.95;3.40;;;0.20;99.90;;;;;;5049432;28;20036;-54
2022/02/13 05:19:20;;;;;;;6.03;3.58;;;0.20;99.90;;;;;;5062131;28;20070;-54
2022/02/13 05:21:46;;;;;;;9.07;3.67;;;0.20;99.90;;;;;;5052051;28;20392;-54
2022/02/13 05:24:12;;;;;;;5.80;3.63;;;0.10;99.90;;;;;;5059917;28;20025;-53
2022/02/13 05:26:38;;;;;;;7.97;4.03;;;0.10;99.90;;;;;;5052229;28;20029;-55
2022/02/13 05:29:04;;;;;;;7.10;4.18;;;0.10;99.90;;;;;;5066827;28;20055;-54
2022/02/13 05:31:30;;;;;;;7.68;3.53;;;0.10;99.90;;;;;;5049268;28;20361;-55
2022/02/13 05:33:59;;;;;;;4.80;3.35;;;0.10;99.90;;;;;;5060924;28;20024;-54
2022/02/13 05:36:25;;;;;;;4.72;3.88;;;0.10;99.90;;;;;;5068686;28;20171;-52
2022/02/13 05:38:51;;;;;;;7.20;3.53;;;0.10;99.90;;;;;;5067605;28;20020;-53
2022/02/13 05:41:17;;;;;;;4.38;3.22;;;0.10;99.90;;;;;;5054381;28;20043;-52
2022/02/13 05:43:43;;;;;;;6.50;3.67;;;0.10;99.90;;;;;;5048978;28;20025;-55
2022/02/13 05:46:09;;;;;;;5.85;3.97;;;0.20;99.90;;;;;;5051065;28;20024;-54
2022/02/13 05:48:35;;;;;;;6.25;3.53;;;0.10;99.90;;;;;;5069414;28;20135;-51
2022/02/13 05:51:01;;;;;;;4.93;3.30;;;0.20;99.90;;;;;;5068534;28;20028;-55
2022/02/13 05:53:28;;;;;;;5.78;3.47;;;0.10;99.90;;;;;;5043018;28;20408;-52
2022/02/13 05:55:53;;;;;;;6.63;3.60;;;0.10;99.90;;;;;;5059682;28;20043;-55
2022/02/13 05:58:20;;;;;;;7.00;3.88;;;0.10;99.90;;;;;;5059345;28;20028;-56
2022/02/13 06:00:46;;;;;;;6.38;3.60;;;0.00;99.90;;;;;;5053132;28;20045;-52
2022/02/13 06:03:11;;;;;;;6.68;3.78;;;0.10;99.90;;;;;;5054466;28;20053;-52
2022/02/13 06:05:38;;;;;;;5.05;3.25;;;0.10;99.90;;;;;;5052785;28;20037;-54
2022/02/13 06:08:04;;;;;;;4.40;3.42;;;0.00;99.90;;;;;;5052818;28;20025;-54
2022/02/13 06:10:29;;;;;;;10.23;4.75;;;0.00;99.90;;;;;;5052871;28;20040;-57
2022/02/13 06:12:55;;;;;;;5.90;3.53;;;0.00;99.90;;;;;;5066656;28;20021;-53
2022/02/13 06:15:21;;;;;;;4.97;3.42;;;0.00;99.90;;;;;;5052778;28;20031;-55
2022/02/13 06:17:46;;;;;;;7.40;4.05;;;0.00;99.90;;;;;;5052393;28;20536;-54
2022/02/13 06:20:12;;;;;;;7.65;4.28;;;0.00;99.90;;;;;;5052662;28;20024;-52
2022/02/13 06:22:39;;;;;;;6.47;3.67;;;0.00;99.90;;;;;;5067157;28;20021;-54
2022/02/13 06:25:05;;;;;;;6.40;3.85;;;0.00;99.90;;;;;;5052607;28;20028;-53
2022/02/13 06:27:31;;;;;;;6.85;3.92;;;0.10;99.90;;;;;;5063986;28;20036;-54
2022/02/13 06:29:56;;;;;;;6.93;3.92;;;0.10;99.90;;;;;;5054254;28;20404;-51
2022/02/13 06:32:22;;;;;;;7.63;4.13;;;0.10;99.90;;;;;;5071610;28;20028;-56
2022/02/13 06:34:48;;;;;;;5.65;3.53;;;0.10;99.90;;;;;;5053955;28;20033;-56
2022/02/13 06:37:13;;;;;;;7.72;3.53;;;0.10;99.90;;;;;;5061571;28;20021;-52
2022/02/13 06:39:39;;;;;;;9.15;4.35;;;0.10;99.90;;;;;;5052309;28;20028;-54
2022/02/13 06:42:05;;;;;;;7.25;3.72;;;0.10;99.90;;;;;;5051785;28;20033;-56
2022/02/13 06:44:31;;;;;;;4.63;3.28;;;0.10;99.90;;;;;;5067270;28;20054;-55
2022/02/13 06:46:56;;;;;;;10.15;4.35;;;0.10;99.90;;;;;;5071458;28;20020;-56
2022/02/13 06:49:22;;;;;;;6.68;3.65;;;0.10;99.90;;;;;;5072150;28;20070;-57
2022/02/13 06:51:47;;;;;;;5.57;3.72;;;0.00;99.90;;;;;;5063140;28;20099;-52
2022/02/13 06:54:13;;;;;;;5.07;3.50;;;0.00;99.90;;;;;;5043489;28;20020;-51
2022/02/13 06:56:39;;;;;;;5.38;3.75;;;0.00;99.90;;;;;;5055679;28;20021;-53
2022/02/13 06:59:04;;;;;;;5.78;3.80;;;0.00;99.90;;;;;;5058610;28;20028;-54
2022/02/13 07:01:30;;;;;;;11.82;4.10;;;0.00;99.90;;;;;;5072261;28;20510;-52
2022/02/13 07:03:56;;;;;;;5.35;3.70;;;0.00;99.90;;;;;;5071274;28;20016;-55
2022/02/13 07:06:21;;;;;;;6.72;4.00;;;-0.10;99.90;;;;;;5072233;28;20496;-54
2022/02/13 07:08:47;;;;;;;5.85;3.97;;;-0.10;99.90;;;;;;5067358;28;20060;-57
2022/02/13 07:11:12;;;;;;;5.13;3.00;;;-0.10;99.90;;;;;;5050273;28;20143;-50
2022/02/13 07:13:38;;;;;;;5.80;3.58;;;-0.10;99.90;;;;;;5051473;28;20021;-54
2022/02/13 07:16:05;;;;;;;7.53;3.90;;;0.00;99.90;;;;;;5033901;28;20083;-55
2022/02/13 07:18:30;;;;;;;7.43;3.88;;;-0.10;99.90;;;;;;5052687;28;20074;-55
2022/02/13 07:20:56;;;;;;;7.93;4.47;;;-0.10;99.90;;;;;;5071787;28;20032;-51
2022/02/13 07:23:21;;;;;;;4.82;3.35;;;0.00;99.90;;;;;;5056696;28;20576;-53
2022/02/13 07:25:48;;;;;;;5.43;3.55;;;0.00;99.90;;;;;;5052609;28;20159;-56
2022/02/13 07:30:57;;;;;;;7.25;3.75;;;0.00;99.90;;;;;;5051508;28;20036;-51
2022/02/13 07:33:23;;;;;;;5.22;3.63;;;0.00;99.90;;;;;;5050778;28;20029;-55
2022/02/13 07:35:48;;;;;;;9.95;3.95;;;0.10;99.90;;;;;;5052013;28;20021;-55
2022/02/13 07:38:14;;;;;;;5.47;3.65;;;0.10;99.90;;;;;;5033133;28;20033;-54
2022/02/13 07:40:39;;;;;;;6.05;3.85;;;0.10;99.90;;;;;;5033197;28;20074;-53
2022/02/13 07:43:05;;;;;;;4.85;3.65;;;0.20;99.90;;;;;;5066562;28;20392;-56
2022/02/13 07:45:31;;;;;;;5.25;3.53;;;0.20;99.90;;;;;;5051117;28;20025;-53
2022/02/13 07:47:56;;;;;;;5.57;4.00;;;0.20;99.90;;;;;;5050705;28;20039;-57
2022/02/13 07:50:22;;;;;;;6.15;4.28;;;0.20;99.90;;;;;;5053297;28;20017;-52
2022/02/13 07:52:48;;;;;;;8.07;4.03;;;0.30;99.90;;;;;;5050017;28;20425;-54
2022/02/13 07:55:14;;;;;;;6.18;4.13;;;0.30;99.90;;;;;;5052034;28;20029;-57
2022/02/13 07:57:44;;;;;;;6.90;3.78;;;0.30;99.90;;;;;;5050252;28;20135;-57
2022/02/13 08:00:10;;;;;;;6.20;3.80;;;0.30;99.90;;;;;;5050943;28;20108;-56
2022/02/13 08:02:38;;;;;;;6.50;4.00;;;0.30;99.90;;;;;;5067565;28;20035;-53
2022/02/13 08:05:04;;;;;;;5.95;3.67;;;0.30;99.90;;;;;;5070766;28;20024;-56
2022/02/13 08:07:30;;;;;;;6.43;4.07;;;0.40;99.90;;;;;;5052485;28;20025;-54
2022/02/13 08:09:56;;;;;;;8.55;4.45;;;0.40;99.90;;;;;;5070173;28;20042;-55
2022/02/13 08:12:22;;;;;;;8.68;4.70;;;0.50;99.90;;;;;;5070145;28;20032;-55
2022/02/13 08:14:47;;;;;;;12.20;4.90;;;0.50;99.90;;;;;;5069984;28;20052;-56
2022/02/13 08:17:13;;;;;;;8.43;4.32;;;0.60;99.90;;;;;;5070141;28;20028;-53
2022/02/13 08:19:38;;;;;;;7.47;4.47;;;0.60;99.90;;;;;;5070585;28;20025;-52
2022/02/13 08:22:05;;;;;;;7.38;4.10;;;0.60;99.90;;;;;;5069676;28;20081;-57
2022/02/13 08:24:31;;;;;;;6.50;4.43;;;0.70;99.90;;;;;;5070276;28;20020;-55
2022/02/13 08:26:56;;;;;;;7.43;3.80;;;0.80;99.90;;;;;;5066929;28;20036;-52
2022/02/13 08:29:22;;;;;;;7.13;3.97;;;0.90;99.90;;;;;;5051925;28;20031;-52
2022/02/13 08:31:48;;;;;;;5.13;3.88;;;0.90;99.90;;;;;;5057678;28;20071;-53
2022/02/13 08:34:13;;;;;;;5.90;3.78;;;1.00;99.90;;;;;;5049616;28;20025;-54
2022/02/13 08:36:39;;;;;;;9.43;4.22;;;1.10;99.90;;;;;;5049388;28;20099;-55
2022/02/13 08:39:05;;;;;;;6.25;3.42;;;1.20;99.90;;;;;;5065279;28;20508;-56
2022/02/13 08:41:31;;;;;;;4.63;3.92;;;1.30;99.90;;;;;;5031666;28;20091;-55
2022/02/13 08:43:57;;;;;;;5.40;3.95;;;1.40;99.90;;;;;;5057943;28;20111;-52
2022/02/13 08:46:23;;;;;;;4.20;3.63;;;1.50;99.90;;;;;;5069493;28;20103;-51
2022/02/13 08:48:49;;;;;;;5.22;3.42;;;1.70;99.90;;;;;;5051144;28;20038;-51
2022/02/13 08:51:15;;;;;;;6.47;4.25;;;1.90;99.90;;;;;;5051797;28;20433;-51
2022/02/13 08:53:41;;;;;;;7.60;4.18;;;2.00;99.90;;;;;;5057164;28;20059;-54
2022/02/13 08:56:07;;;;;;;7.25;4.03;;;2.20;99.90;;;;;;5049545;28;20029;-56
2022/02/13 08:58:32;;;;;;;7.10;3.92;;;2.30;99.90;;;;;;5049927;28;20052;-55
2022/02/13 09:00:59;;;;;;;6.93;3.42;;;2.40;99.90;;;;;;5056296;28;20087;-56
2022/02/13 09:03:25;;;;;;;6.68;3.60;;;2.50;99.90;;;;;;5046714;28;20060;-55
2022/02/13 09:05:50;;;;;;;5.25;3.83;;;2.60;99.90;;;;;;5049844;28;20064;-54
2022/02/13 09:08:16;;;;;;;9.52;3.80;;;2.70;99.90;;;;;;5049128;28;20483;-53
2022/02/13 09:10:41;;;;;;;6.55;3.47;;;2.80;99.90;;;;;;5049519;28;20037;-53
2022/02/13 09:13:08;;;;;;;5.20;3.42;;;2.90;99.90;;;;;;5049225;28;20101;-52
2022/02/13 09:15:34;;;;;;;5.32;2.90;;;3.00;99.90;;;;;;5049122;28;20039;-53
2022/02/13 09:20:25;;;;;;;4.05;3.22;;;3.10;99.90;;;;;;5103533;22;20052;-50
2022/02/13 09:22:52;;;;;;;5.43;3.38;;;3.20;99.90;;;;;;5050575;28;20112;-47
2022/02/13 09:25:18;;;;;;;4.65;3.67;;;3.30;99.90;;;;;;5069400;28;20492;-50
2022/02/13 09:27:43;;;;;;;4.28;3.25;;;3.30;99.90;;;;;;5069387;28;20059;-50
2022/02/13 09:30:10;;;;;;;5.28;3.97;;;3.40;99.90;;;;;;5070237;28;20052;-49
2022/02/13 09:32:38;;;;;;;5.60;3.20;;;3.50;99.90;;;;;;5067978;28;20099;-47
2022/02/13 09:35:05;;;;;;;7.03;3.20;;;3.60;99.90;;;;;;5066703;28;20036;-50
2022/02/13 09:37:31;;;;;;;5.97;2.72;;;3.70;99.90;;;;;;5089472;28;20043;-49
2022/02/13 09:39:56;;;;;;;5.32;3.20;;;3.70;99.90;;;;;;5087540;28;20028;-48
2022/02/13 09:42:22;;;;;;;4.70;2.80;;;3.80;99.90;;;;;;5082865;28;20488;-47
2022/02/13 09:44:48;;;;;;;5.80;3.13;;;3.80;99.90;;;;;;5071369;28;20024;-52
2022/02/13 09:47:15;;;;;;;4.05;2.85;;;3.90;99.90;;;;;;5067753;28;20036;-50
2022/02/13 09:49:40;;;;;;;3.92;2.60;;;4.00;99.90;;;;;;5069347;28;20032;-49
2022/02/13 09:52:08;;;;;;;6.75;3.50;;;4.00;99.90;;;;;;5069298;28;20036;-49
2022/02/13 09:54:36;;;;;;;4.50;2.83;;;4.00;99.90;;;;;;5089096;28;20024;-47
2022/02/13 10:00:00;;;;;;;5.55;3.38;;;4.10;99.90;;;;;;5089279;28;20030;-50
2022/02/13 10:02:34;;;;;;;3.53;3.05;;;4.10;99.90;;;;;;5071243;28;20500;-50
2022/02/13 10:05:00;;;;;;;4.28;2.88;;;4.10;99.90;;;;;;5031329;28;20036;-50
2022/02/13 10:07:26;;;;;;;5.68;3.13;;;4.10;99.90;;;;;;5064025;28;20044;-50
2022/02/13 10:10:00;;;;;;;5.63;3.35;;;4.10;99.90;;;;;;5048697;28;20136;-50
2022/02/13 10:12:38;;;;;;;7.05;3.58;;;4.10;99.90;;;;;;5056877;28;20032;-50
2022/02/13 10:15:27;;;;;;;3.50;2.95;;;4.20;99.90;;;;;;5068785;28;20565;-52
2022/02/13 10:18:03;;;;;;;4.60;2.85;;;4.20;99.90;;;;;;5051247;28;20488;-52
2022/02/13 10:20:32;;;;;;;4.63;3.10;;;4.30;99.90;;;;;;5068915;28;20107;-51
2022/02/13 10:23:08;;;;;;;4.45;3.47;;;4.30;99.90;;;;;;5055391;28;20133;-50
2022/02/13 10:25:34;;;;;;;5.30;2.72;;;4.40;99.90;;;;;;5031363;28;20496;-49
2022/02/13 10:28:15;;;;;;;5.75;3.30;;;4.40;99.90;;;;;;5048959;28;20111;-47
2022/02/13 10:30:47;;;;;;;4.07;2.95;;;4.50;99.90;;;;;;5048926;28;20045;-49
2022/02/13 10:33:27;;;;;;;5.38;3.15;;;4.50;99.90;;;;;;5048241;28;20565;-49
2022/02/13 10:36:11;;;;;;;5.50;2.88;;;4.60;99.90;;;;;;5048972;28;20040;-51
2022/02/13 10:38:40;;;;;;;4.72;3.38;;;4.60;99.90;;;;;;5067302;28;20013;-49
2022/02/13 10:41:17;;;;;;;4.18;3.78;;;4.70;99.90;;;;;;5052759;28;20438;-49
2022/02/13 10:44:04;;;;;;;4.97;3.22;;;4.70;99.90;;;;;;5052370;28;20062;-52
2022/02/13 10:46:36;;;;;;;4.38;3.15;;;4.80;99.90;;;;;;5055541;28;20028;-51
2022/02/13 10:49:03;;;;;;;6.90;3.65;;;4.80;99.90;;;;;;5055950;28;20036;-46
2022/02/13 10:51:30;;;;;;;3.85;3.13;;;4.80;99.90;;;;;;5040663;28;20074;-52
2022/02/13 10:53:56;;;;;;;5.57;3.00;;;4.90;99.90;;;;;;5039312;28;20024;-48
2022/02/13 10:56:22;;;;;;;5.15;3.58;;;4.90;99.90;;;;;;5056155;28;20037;-49
2022/02/13 10:58:48;;;;;;;4.65;3.38;;;5.00;99.90;;;;;;5056553;28;20543;-49
2022/02/13 11:01:16;;;;;;;3.58;3.28;;;5.10;99.90;;;;;;5055184;28;20021;-47
2022/02/13 11:03:45;;;;;;;6.15;3.22;;;5.10;99.90;;;;;;5062602;28;20033;-49
2022/02/13 11:06:11;;;;;;;6.20;3.20;;;5.20;99.90;;;;;;5068196;28;20116;-48
2022/02/13 11:08:47;;;;;;;5.15;3.20;;;5.20;99.90;;;;;;5070466;28;20167;-48
2022/02/13 11:11:14;;;;;;;5.10;3.67;;;5.30;99.90;;;;;;5071832;28;20427;-48
2022/02/13 11:13:40;;;;;;;4.97;3.15;;;5.30;99.90;;;;;;5053522;28;20131;-51
2022/02/13 11:16:35;;;;;;;8.55;3.72;;;5.30;99.90;;;;;;5053243;28;20028;-49
2022/02/13 11:19:09;;;;;;;5.25;3.35;;;5.30;99.90;;;;;;5071431;28;20040;-47
2022/02/13 11:21:35;;;;;;;5.55;3.80;;;5.40;99.90;;;;;;5071614;28;20013;-49
2022/02/13 11:24:02;;;;;;;5.50;3.40;;;5.40;99.90;;;;;;5071132;28;20032;-49
2022/02/13 11:26:42;;;;;;;6.47;3.30;;;5.40;99.90;;;;;;5072135;28;20028;-48
2022/02/13 11:29:10;;;;;;;6.30;3.60;;;5.50;99.90;;;;;;5072446;28;20025;-51
2022/02/13 11:31:50;;;;;;;4.30;3.03;;;5.50;99.90;;;;;;5072985;28;20103;-50
2022/02/13 11:34:38;;;;;;;4.05;3.28;;;5.50;99.90;;;;;;5071770;28;20036;-48
2022/02/13 11:37:11;;;;;;;5.18;3.25;;;5.60;99.90;;;;;;5071112;28;20036;-49
2022/02/13 11:39:42;;;;;;;3.55;2.95;;;5.60;99.90;;;;;;5054130;28;20016;-49
2022/02/13 11:42:10;;;;;;;3.45;3.03;;;5.70;99.90;;;;;;5070768;28;20024;-49
2022/02/13 11:44:39;;;;;;;6.32;3.83;;;5.80;99.90;;;;;;5070733;28;20108;-50
2022/02/13 11:47:07;;;;;;;6.00;3.35;;;5.80;99.90;;;;;;5071002;28;20020;-50
2022/02/13 11:50:09;;;;;;;3.47;3.17;;;5.90;99.90;;;;;;5070756;28;20017;-49
2022/02/13 11:52:38;;;;;;;4.07;2.97;;;5.90;99.90;;;;;;5069131;28;20107;-49
2022/02/13 11:55:05;;;;;;;5.85;3.25;;;5.90;99.90;;;;;;5069108;28;20063;-49
2022/02/13 11:57:33;;;;;;;5.95;3.85;;;6.00;99.90;;;;;;5069371;28;20021;-48
2022/02/13 11:59:58;;;;;;;7.75;3.50;;;6.00;99.90;;;;;;5070463;28;20425;-51
2022/02/13 12:02:30;;;;;;;5.10;3.72;;;6.00;99.90;;;;;;5069376;28;20020;-52
2022/02/13 12:05:09;;;;;;;7.32;4.05;;;6.00;99.90;;;;;;5071120;28;20027;-50
2022/02/13 12:07:38;;;;;;;7.18;4.00;;;6.00;99.90;;;;;;5070701;28;20025;-50
2022/02/13 12:10:36;;;;;;;4.20;3.40;;;6.10;99.90;;;;;;5070547;28;20247;-49
2022/02/13 12:13:13;;;;;;;4.28;3.38;;;6.00;99.90;;;;;;5070216;28;20024;-52
2022/02/13 12:15:47;;;;;;;5.00;3.45;;;6.00;99.90;;;;;;5070179;28;20048;-53
2022/02/13 12:18:14;;;;;;;4.80;3.80;;;6.10;99.90;;;;;;5071761;28;20027;-50
2022/02/13 12:20:42;;;;;;;3.72;2.90;;;6.10;99.90;;;;;;5106158;28;20027;-53
2022/02/13 12:23:10;;;;;;;5.03;3.50;;;6.10;99.90;;;;;;5090290;28;20480;-49
2022/02/13 12:25:38;;;;;;;6.00;3.28;;;6.10;99.90;;;;;;5085452;28;20047;-51
2022/02/13 12:28:06;;;;;;;7.85;4.38;;;6.10;99.90;;;;;;5053431;28;20048;-50
2022/02/13 12:30:32;;;;;;;4.20;3.65;;;6.20;99.90;;;;;;5070292;28;20500;-51
2022/02/13 12:33:02;;;;;;;5.82;3.67;;;6.20;99.90;;;;;;5083128;28;20047;-51
2022/02/13 12:35:36;;;;;;;5.40;3.78;;;6.20;99.90;;;;;;5056824;28;20032;-51
2022/02/13 12:38:03;;;;;;;4.88;3.40;;;6.20;99.90;;;;;;5071008;28;20333;-49
2022/02/13 12:40:44;;;;;;;5.60;3.22;;;6.20;99.90;;;;;;5068645;28;20024;-50
2022/02/13 12:43:10;;;;;;;5.75;3.58;;;6.20;99.90;;;;;;5069670;28;20021;-52
2022/02/13 12:45:38;;;;;;;4.82;3.75;;;6.20;99.90;;;;;;5079310;28;20032;-51
2022/02/13 12:48:09;;;;;;;4.32;3.50;;;6.30;99.90;;;;;;5090177;28;20332;-49
2022/02/13 12:50:37;;;;;;;4.20;3.25;;;6.40;99.90;;;;;;5089739;28;20028;-52
2022/02/13 12:53:04;;;;;;;6.50;3.53;;;6.40;99.90;;;;;;5089965;28;20024;-50
2022/02/13 12:55:30;;;;;;;4.78;3.60;;;6.40;99.90;;;;;;5089472;28;20047;-47
2022/02/13 12:57:57;;;;;;;5.07;3.13;;;6.40;99.90;;;;;;5090051;28;20020;-51
2022/02/13 13:00:44;;;;;;;3.88;3.28;;;6.40;99.90;;;;;;5081061;28;20021;-49
2022/02/13 13:03:13;;;;;;;6.28;3.42;;;6.40;99.90;;;;;;5069655;28;20027;-49
2022/02/13 13:05:46;;;;;;;4.10;3.35;;;6.40;99.90;;;;;;5080136;28;20399;-49